Погода Тсироаномандидина 2 недели

Антананариву, Мадагаскар

15 - 27 июля
  • 15июля
    Сегодня
    +10°
    +28°
    Ясно и безоблачно
    ВремяПогодаТемператураВлажностьДавлениеВетер, м/сВероятность осадков
    00:00Ясно и безоблачно+16°C63 %697 мм3.6 м/с5 %
    03:00Ясно и безоблачно+12°C84 %696 мм2.6 м/с5 %
    06:00Ясно и безоблачно+11°C91 %696 мм2.9 м/с5 %
    09:00Ясно и безоблачно+17°C62 %698 мм2.4 м/с5 %
    12:00Ясно и безоблачно+25°C31 %698 мм1.7 м/с5 %
    15:00Ясно и безоблачно+27°C25 %697 мм0.4 м/с5 %
    18:00Ясно и безоблачно+22°C38 %696 мм1.8 м/с5 %
    21:00Ясно и безоблачно+17°C46 %696 мм1.6 м/с5 %
  • 16июля
    Вторник
    +12°
    +28°
    Ясно и безоблачно
    ВремяПогодаТемператураВлажностьДавлениеВетер, м/сВероятность осадков
    00:00Ясно и безоблачно+15°C54 %696 мм2.1 м/с5 %
    03:00Ясно и безоблачно+13°C70 %695 мм1.0 м/с5 %
    06:00Ясно и безоблачно+11°C89 %695 мм2.0 м/с5 %
    09:00Ясно и безоблачно+18°C67 %698 мм1.6 м/с5 %
    12:00Ясно и безоблачно+26°C35 %698 мм0.7 м/с5 %
    15:00Ясно и безоблачно+27°C29 %697 мм0.5 м/с5 %
    18:00Ясно и безоблачно+22°C42 %696 мм1.8 м/с5 %
    21:00Ясно и безоблачно+17°C49 %696 мм2.0 м/с5 %
  • 17июля
    Среда
    +11°
    +29°
    Ясно и безоблачно
    ВремяПогодаТемператураВлажностьДавлениеВетер, м/сВероятность осадков
    00:00Ясно и безоблачно+15°C56 %696 мм2.0 м/с5 %
    03:00Ясно и безоблачно+13°C63 %695 мм1.7 м/с5 %
    06:00Ясно и безоблачно+11°C71 %695 мм1.5 м/с5 %
    09:00Ясно и безоблачно+19°C58 %698 мм0.9 м/с5 %
    12:00Ясно и безоблачно+27°C33 %698 мм0.4 м/с5 %
    15:00Ясно и безоблачно+28°C28 %697 мм1.0 м/с5 %
    18:00Ясно и безоблачно+22°C36 %697 мм1.8 м/с5 %
    21:00Ясно и безоблачно+18°C46 %697 мм2.7 м/с5 %
  • 18июля
    Четверг
    +12°
    +30°
    Ясно и безоблачно
    ВремяПогодаТемператураВлажностьДавлениеВетер, м/сВероятность осадков
    00:00Ясно и безоблачно+16°C57 %697 мм2.1 м/с5 %
    03:00Ясно и безоблачно+15°C60 %696 мм1.6 м/с5 %
    06:00Ясно и безоблачно+12°C83 %695 мм1.7 м/с5 %
    09:00Ясно и безоблачно+20°C62 %698 мм2.1 м/с5 %
    12:00Ясно и безоблачно+27°C35 %698 мм2.3 м/с5 %
    15:00Ясно и безоблачно+29°C27 %697 мм0.8 м/с5 %
    18:00Ясно и безоблачно+24°C35 %696 мм1.4 м/с5 %
    21:00Ясно и безоблачно+20°C44 %697 мм0.9 м/с5 %
Мы используем cookies
Соглашаюсь